createdAt,value
2022-09-18T00:01:00.907Z,101772.97
2022-09-18T00:03:30.221Z,101775.28
2022-09-18T00:05:57.920Z,101769.56
2022-09-18T00:08:25.987Z,101768.75
2022-09-18T00:10:53.690Z,101769.38
2022-09-18T00:13:21.430Z,101764.88
2022-09-18T00:15:56.223Z,101766.66
2022-09-18T00:18:24.006Z,101771.88
2022-09-18T00:20:53.123Z,101776.56
2022-09-18T00:23:21.168Z,101769.56
2022-09-18T00:25:48.834Z,101771.50
2022-09-18T00:28:16.581Z,101767.63
2022-09-18T00:30:44.265Z,101773.09
2022-09-18T00:33:12.010Z,101771.44
2022-09-18T00:35:43.258Z,101770.38
2022-09-18T00:38:12.640Z,101776.47
2022-09-18T00:40:40.746Z,101770.22
2022-09-18T00:43:19.397Z,101778.78
2022-09-18T00:45:52.094Z,101773.25
2022-09-18T00:48:19.890Z,101776.66
2022-09-18T00:50:47.725Z,101769.09
2022-09-18T00:53:17.089Z,101770.84
2022-09-18T00:55:45.293Z,101766.69
2022-09-18T00:58:13.485Z,101768.09
2022-09-18T01:00:41.233Z,101769.41
2022-09-18T01:03:09.173Z,101759.56
2022-09-18T01:05:53.491Z,101760.81
2022-09-18T01:08:32.434Z,101757.63
2022-09-18T01:11:14.812Z,101757.47
2022-09-18T01:13:50.691Z,101760.97
2022-09-18T01:16:24.554Z,101752.59
2022-09-18T01:18:58.214Z,101756.06
2022-09-18T01:21:32.134Z,101757.31
2022-09-18T01:24:34.015Z,101754.63
2022-09-18T01:27:05.266Z,101752.59
2022-09-18T01:29:46.237Z,101750.53
2022-09-18T01:32:21.970Z,101749.81
2022-09-18T01:34:57.519Z,101753.19
2022-09-18T01:37:33.602Z,101749.38
2022-09-18T01:40:09.168Z,101752.00
2022-09-18T01:42:39.109Z,101753.84
2022-09-18T01:45:11.890Z,101749.03
2022-09-18T01:47:46.912Z,101749.22
2022-09-18T01:50:16.609Z,101755.66
2022-09-18T01:52:47.964Z,101748.19
2022-09-18T01:55:20.406Z,101745.81
2022-09-18T01:57:54.378Z,101747.28
2022-09-18T02:00:24.614Z,101743.91
2022-09-18T02:02:56.162Z,101747.91
2022-09-18T02:05:28.774Z,101742.72
2022-09-18T02:08:08.074Z,101735.91
2022-09-18T02:10:41.354Z,101744.03
2022-09-18T02:13:12.329Z,101733.16
2022-09-18T02:15:43.247Z,101734.94
2022-09-18T02:18:17.422Z,101738.50
2022-09-18T02:20:46.086Z,101740.75
2022-09-18T02:23:15.426Z,101729.88
2022-09-18T02:25:48.958Z,101739.06
2022-09-18T02:28:18.269Z,101733.97
2022-09-18T02:30:47.466Z,101726.53
2022-09-18T02:33:25.924Z,101736.19
2022-09-18T02:36:16.097Z,101739.59
2022-09-18T02:38:50.866Z,101736.94
2022-09-18T02:41:32.477Z,101739.41
2022-09-18T02:44:08.523Z,101735.69
2022-09-18T02:46:46.615Z,101728.44
2022-09-18T02:49:24.806Z,101731.22
2022-09-18T02:51:59.116Z,101730.56
2022-09-18T02:54:33.829Z,101730.44
2022-09-18T02:57:07.035Z,101728.41
2022-09-18T02:59:40.178Z,101733.34
2022-09-18T03:02:09.791Z,101729.88
2022-09-18T03:04:37.581Z,101728.69
2022-09-18T03:07:05.481Z,101725.38
2022-09-18T03:09:34.661Z,101717.56
2022-09-18T03:12:03.183Z,101723.91
2022-09-18T03:14:31.458Z,101722.34
2022-09-18T03:16:59.238Z,101725.28
2022-09-18T03:19:28.721Z,101726.28
2022-09-18T03:21:56.470Z,101718.31
2022-09-18T03:24:25.294Z,101715.75
2022-09-18T03:26:53.438Z,101721.16
2022-09-18T03:29:21.250Z,101717.63
2022-09-18T03:31:49.030Z,101720.19
2022-09-18T03:34:16.781Z,101714.06
2022-09-18T03:36:47.053Z,101722.69
2022-09-18T03:39:16.214Z,101719.03
2022-09-18T03:41:44.097Z,101719.53
2022-09-18T03:44:11.958Z,101716.59
2022-09-18T03:46:39.764Z,101720.28
2022-09-18T03:49:08.631Z,101717.72
2022-09-18T03:51:36.391Z,101711.38
2022-09-18T03:54:06.265Z,101713.88
2022-09-18T03:56:34.046Z,101717.78
2022-09-18T03:59:01.769Z,101714.00
2022-09-18T04:01:29.527Z,101716.28
2022-09-18T04:03:57.466Z,101716.88
2022-09-18T04:06:26.505Z,101725.09
2022-09-18T04:08:54.222Z,101722.81
2022-09-18T04:11:23.310Z,101725.59
2022-09-18T04:13:51.114Z,101724.81
2022-09-18T04:16:18.967Z,101718.47
2022-09-18T04:18:46.766Z,101718.75
2022-09-18T04:21:14.467Z,101720.28
2022-09-18T04:23:42.198Z,101718.09
2022-09-18T04:26:10.346Z,101725.16
2022-09-18T04:28:39.471Z,101730.53
2022-09-18T04:31:07.468Z,101721.97
2022-09-18T04:33:35.251Z,101727.28
2022-09-18T04:36:03.365Z,101715.84
2022-09-18T04:38:31.082Z,101727.34
2022-09-18T04:40:59.705Z,101724.56
2022-09-18T04:43:28.774Z,101730.00
2022-09-18T04:45:57.962Z,101730.22
2022-09-18T04:48:25.770Z,101723.31
2022-09-18T04:50:53.573Z,101724.50
2022-09-18T04:53:21.415Z,101724.38
2022-09-18T04:55:49.765Z,101728.31
2022-09-18T04:58:18.735Z,101733.44
2022-09-18T05:00:48.889Z,101730.78
2022-09-18T05:03:19.342Z,101734.16
2022-09-18T05:05:48.278Z,101735.91
2022-09-18T05:08:16.005Z,101731.06
2022-09-18T05:10:44.104Z,101733.91
2022-09-18T05:13:11.858Z,101732.88
2022-09-18T05:15:39.566Z,101737.13
2022-09-18T05:18:11.449Z,101742.19
2022-09-18T05:20:40.930Z,101743.84
2022-09-18T05:23:08.690Z,101748.16
2022-09-18T05:25:36.464Z,101747.03
2022-09-18T05:28:05.100Z,101746.06
2022-09-18T05:30:33.063Z,101748.75
2022-09-18T05:33:02.142Z,101743.47
2022-09-18T05:35:31.389Z,101744.63
2022-09-18T05:38:00.734Z,101747.50
2022-09-18T05:40:32.783Z,101744.22
2022-09-18T05:43:01.002Z,101751.66
2022-09-18T05:45:28.677Z,101744.88
2022-09-18T05:47:57.977Z,101752.84
2022-09-18T05:50:26.897Z,101759.13
2022-09-18T05:53:01.350Z,101752.09
2022-09-18T05:55:31.895Z,101752.03
2022-09-18T05:58:02.390Z,101751.78
2022-09-18T06:00:31.990Z,101758.47
2022-09-18T06:03:01.356Z,101766.25
2022-09-18T06:05:31.585Z,101776.63
2022-09-18T06:08:01.676Z,101776.53
2022-09-18T06:10:30.886Z,101787.03
2022-09-18T06:13:02.611Z,101787.88
2022-09-18T06:15:30.304Z,101800.94
2022-09-18T06:17:58.134Z,101801.78
2022-09-18T06:20:26.902Z,101792.66
2022-09-18T06:22:54.623Z,101801.22
2022-09-18T06:25:23.877Z,101804.28
2022-09-18T06:27:58.373Z,101804.06
2022-09-18T06:30:26.869Z,101802.81
2022-09-18T06:32:56.796Z,101798.13
2022-09-18T06:35:24.806Z,101796.53
2022-09-18T06:37:52.501Z,101802.75
2022-09-18T06:40:20.289Z,101801.47
2022-09-18T06:42:49.391Z,101807.97
2022-09-18T06:45:17.241Z,101805.59
2022-09-18T06:47:44.939Z,101801.81
2022-09-18T06:50:12.795Z,101808.81
2022-09-18T06:52:40.569Z,101808.81
2022-09-18T06:55:09.080Z,101811.63
2022-09-18T06:57:36.851Z,101811.63
2022-09-18T07:00:07.114Z,101816.00
2022-09-18T07:02:34.844Z,101821.47
2022-09-18T07:05:02.671Z,101813.34
2022-09-18T07:07:30.390Z,101816.53
2022-09-18T07:09:58.146Z,101818.13
2022-09-18T07:12:25.828Z,101811.66
2022-09-18T07:14:53.870Z,101818.53
2022-09-18T07:17:26.151Z,101820.16
2022-09-18T07:19:54.677Z,101823.47
2022-09-18T07:22:22.364Z,101827.28
2022-09-18T07:24:50.106Z,101826.19
2022-09-18T07:27:17.792Z,101840.75
2022-09-18T07:29:45.478Z,101833.78
2022-09-18T07:32:13.310Z,101834.78
2022-09-18T07:34:42.429Z,101843.13
2022-09-18T07:37:10.081Z,101841.38
2022-09-18T07:39:37.787Z,101842.47
2022-09-18T07:42:08.949Z,101838.63
2022-09-18T07:44:37.051Z,101836.03
2022-09-18T07:47:05.540Z,101840.72
2022-09-18T07:49:33.901Z,101835.75
2022-09-18T07:52:03.374Z,101829.16
2022-09-18T07:54:31.092Z,101829.44
2022-09-18T07:56:58.838Z,101827.56
2022-09-18T07:59:26.570Z,101829.03
2022-09-18T08:01:55.902Z,101829.63
2022-09-18T08:04:24.049Z,101825.66
2022-09-18T08:06:58.051Z,101828.72
2022-09-18T08:09:27.162Z,101818.31
2022-09-18T08:11:54.914Z,101824.47
2022-09-18T08:14:28.060Z,101824.69
2022-09-18T08:16:57.704Z,101827.59
2022-09-18T08:19:26.020Z,101828.72
2022-09-18T08:21:53.819Z,101833.19
2022-09-18T08:24:21.561Z,101835.41
2022-09-18T08:26:50.643Z,101839.03
2022-09-18T08:29:19.822Z,101838.34
2022-09-18T08:31:48.026Z,101836.47
2022-09-18T08:34:15.915Z,101834.06
2022-09-18T08:36:43.712Z,101843.63
2022-09-18T08:39:11.423Z,101839.56
2022-09-18T08:41:56.906Z,101837.16
2022-09-18T08:44:28.336Z,101838.41
2022-09-18T08:47:04.574Z,101839.44
2022-09-18T08:49:35.923Z,101843.84
2022-09-18T08:52:10.010Z,101841.38
2022-09-18T08:54:46.571Z,101829.56
2022-09-18T08:57:22.478Z,101837.72
2022-09-18T08:59:54.673Z,101834.16
2022-09-18T09:02:33.973Z,101833.94
2022-09-18T09:05:07.213Z,101829.06
2022-09-18T09:07:50.542Z,101832.03
2022-09-18T09:10:30.346Z,101835.78
2022-09-18T09:13:17.786Z,101837.28
2022-09-18T09:15:55.294Z,101831.34
2022-09-18T09:18:31.074Z,101831.09
2022-09-18T09:21:02.852Z,101834.16
2022-09-18T09:23:43.317Z,101836.63
2022-09-18T09:26:14.270Z,101834.69
2022-09-18T09:28:52.674Z,101832.97
2022-09-18T09:31:25.051Z,101836.69
2022-09-18T09:33:58.563Z,101837.84
2022-09-18T09:36:30.749Z,101823.97
2022-09-18T09:39:05.709Z,101834.28
2022-09-18T09:41:39.762Z,101830.03
2022-09-18T09:44:31.884Z,101823.84
2022-09-18T09:47:07.727Z,101822.44
2022-09-18T09:49:52.434Z,101829.16
2022-09-18T09:52:23.899Z,101830.72
2022-09-18T09:54:55.592Z,101828.22
2022-09-18T09:57:30.155Z,101827.38
2022-09-18T10:00:10.883Z,101833.31
2022-09-18T10:02:55.616Z,101828.88
2022-09-18T10:05:30.058Z,101830.09
2022-09-18T10:08:03.519Z,101828.13
2022-09-18T10:10:38.749Z,101826.16
2022-09-18T10:13:13.065Z,101825.66
2022-09-18T10:15:45.149Z,101811.00
2022-09-18T10:18:17.625Z,101811.97
2022-09-18T10:20:46.625Z,101818.09
2022-09-18T10:23:18.073Z,101813.72
2022-09-18T10:25:51.037Z,101802.66
2022-09-18T10:28:18.840Z,101810.44
2022-09-18T10:30:57.658Z,101793.25
2022-09-18T10:33:33.989Z,101799.16
2022-09-18T10:36:13.210Z,101801.34
2022-09-18T10:38:41.070Z,101794.06
2022-09-18T10:41:27.670Z,101791.16
2022-09-18T10:44:04.522Z,101791.09
2022-09-18T10:46:36.941Z,101784.00
2022-09-18T10:49:19.788Z,101785.19
2022-09-18T10:51:47.568Z,101785.06
2022-09-18T10:54:18.847Z,101788.19
2022-09-18T10:56:47.034Z,101779.59
2022-09-18T10:59:32.073Z,101785.34
2022-09-18T11:02:02.852Z,101785.94
2022-09-18T11:04:32.093Z,101789.69
2022-09-18T11:07:03.103Z,101785.56
2022-09-18T11:09:34.490Z,101789.53
2022-09-18T11:12:03.086Z,101788.31
2022-09-18T11:14:34.053Z,101791.75
2022-09-18T11:17:04.851Z,101791.53
2022-09-18T11:19:34.887Z,101782.06
2022-09-18T11:22:05.821Z,101790.84
2022-09-18T11:24:36.030Z,101780.69
2022-09-18T11:27:16.956Z,101777.91
2022-09-18T11:29:44.961Z,101780.59
2022-09-18T11:32:20.517Z,101774.44
2022-09-18T11:34:51.853Z,101769.78
2022-09-18T11:37:29.452Z,101767.94
2022-09-18T11:40:04.308Z,101763.81
2022-09-18T11:42:32.596Z,101762.97
2022-09-18T11:45:16.680Z,101771.41
2022-09-18T11:47:49.182Z,101762.16
2022-09-18T11:50:21.113Z,101770.38
2022-09-18T11:52:54.014Z,101762.22
2022-09-18T11:55:30.914Z,101756.28
2022-09-18T11:58:03.209Z,101753.50
2022-09-18T12:00:37.576Z,101757.78
2022-09-18T12:03:20.196Z,101750.31
2022-09-18T12:05:54.931Z,101752.63
2022-09-18T12:08:37.000Z,101755.63
2022-09-18T12:11:10.700Z,101755.63
2022-09-18T12:13:55.127Z,101747.84
2022-09-18T12:16:32.215Z,101755.84
2022-09-18T12:19:06.049Z,101748.91
2022-09-18T12:21:44.495Z,101747.78
2022-09-18T12:24:14.784Z,101745.31
2022-09-18T12:26:52.846Z,101754.09
2022-09-18T12:29:38.558Z,101748.28
2022-09-18T12:32:23.953Z,101747.66
2022-09-18T12:35:01.232Z,101745.75
2022-09-18T12:37:45.620Z,101739.66
2022-09-18T12:40:34.626Z,101734.31
2022-09-18T12:43:22.406Z,101722.63
2022-09-18T12:46:20.800Z,101734.34
2022-09-18T12:49:06.340Z,101723.31
2022-09-18T12:51:42.816Z,101730.19
2022-09-18T12:54:36.833Z,101719.63
2022-09-18T12:57:20.075Z,101726.78
2022-09-18T12:59:57.504Z,101724.78
2022-09-18T13:02:36.960Z,101714.00
2022-09-18T13:05:12.476Z,101715.03
2022-09-18T13:07:46.086Z,101709.53
2022-09-18T13:10:20.561Z,101714.00
2022-09-18T13:12:55.413Z,101709.63
2022-09-18T13:15:26.762Z,101705.03
2022-09-18T13:18:01.136Z,101706.25
2022-09-18T13:20:33.486Z,101709.09
2022-09-18T13:23:03.133Z,101704.00
2022-09-18T13:25:35.081Z,101706.06
2022-09-18T13:28:06.029Z,101699.47
2022-09-18T13:30:34.601Z,101696.16
2022-09-18T13:33:03.453Z,101694.16
2022-09-18T13:35:33.790Z,101686.06
2022-09-18T13:38:16.337Z,101678.28
2022-09-18T13:40:46.492Z,101680.53
2022-09-18T13:43:39.645Z,101679.50
2022-09-18T13:46:10.382Z,101672.97
2022-09-18T13:48:45.665Z,101666.72
2022-09-18T13:51:22.000Z,101664.03
2022-09-18T13:54:16.948Z,101648.16
2022-09-18T13:57:22.334Z,101661.16
2022-09-18T13:59:52.907Z,101646.09
2022-09-18T14:02:24.979Z,101650.19
2022-09-18T14:05:01.256Z,101654.28
2022-09-18T14:07:53.571Z,101655.88
2022-09-18T14:10:26.250Z,101650.06
2022-09-18T14:13:25.664Z,101647.59
2022-09-18T14:16:00.022Z,101641.78
2022-09-18T14:18:30.854Z,101647.22
2022-09-18T14:21:15.286Z,101641.78
2022-09-18T14:24:05.305Z,101639.19
2022-09-18T14:27:04.115Z,101635.38
2022-09-18T14:29:34.588Z,101625.41
2022-09-18T14:32:03.376Z,101626.25
2022-09-18T14:34:37.524Z,101611.19
2022-09-18T14:37:24.377Z,101618.88
2022-09-18T14:39:53.982Z,101620.06
2022-09-18T14:42:32.586Z,101611.44
2022-09-18T14:45:21.412Z,101615.13
2022-09-18T14:47:50.595Z,101608.38
2022-09-18T14:50:34.957Z,101608.72
2022-09-18T14:53:07.496Z,101605.88
2022-09-18T14:55:40.380Z,101607.84
2022-09-18T14:58:14.979Z,101606.63
2022-09-18T15:00:43.380Z,101602.78
2022-09-18T15:03:19.256Z,101598.59
2022-09-18T15:05:48.152Z,101603.53
2022-09-18T15:08:18.479Z,101599.94
2022-09-18T15:10:49.513Z,101596.38
2022-09-18T15:13:20.584Z,101598.47
2022-09-18T15:15:58.266Z,101595.91
2022-09-18T15:18:28.436Z,101591.91
2022-09-18T15:20:57.561Z,101595.88
2022-09-18T15:23:28.063Z,101593.19
2022-09-18T15:25:58.245Z,101595.38
2022-09-18T15:28:30.127Z,101588.00
2022-09-18T15:31:03.417Z,101589.13
2022-09-18T15:33:34.434Z,101590.69
2022-09-18T15:36:04.529Z,101585.56
2022-09-18T15:38:40.953Z,101585.41
2022-09-18T15:41:23.238Z,101579.47
2022-09-18T15:43:52.344Z,101576.28
2022-09-18T15:46:27.631Z,101578.72
2022-09-18T15:48:59.443Z,101567.53
2022-09-18T15:51:29.304Z,101569.13
2022-09-18T15:54:26.489Z,101567.53
2022-09-18T15:56:56.493Z,101576.91
2022-09-18T15:59:30.876Z,101562.09
2022-09-18T16:01:59.269Z,101559.13
2022-09-18T16:04:32.366Z,101554.06
2022-09-18T16:07:01.526Z,101554.22
2022-09-18T16:09:42.623Z,101548.53
2022-09-18T16:12:34.945Z,101552.72
2022-09-18T16:15:16.712Z,101555.06
2022-09-18T16:18:03.864Z,101545.94
2022-09-18T16:20:41.572Z,101554.91
2022-09-18T16:23:24.104Z,101553.22
2022-09-18T16:26:10.407Z,101548.94
2022-09-18T16:28:42.870Z,101553.25
2022-09-18T16:31:13.027Z,101546.75
2022-09-18T16:33:50.784Z,101552.94
2022-09-18T16:36:25.635Z,101550.06
2022-09-18T16:38:53.377Z,101555.63
2022-09-18T16:41:21.434Z,101556.38
2022-09-18T16:43:49.653Z,101558.31
2022-09-18T16:46:20.716Z,101556.38
2022-09-18T16:48:48.604Z,101555.38
2022-09-18T16:51:16.437Z,101565.22
2022-09-18T16:53:44.165Z,101564.16
2022-09-18T16:56:15.458Z,101564.81
2022-09-18T16:58:44.369Z,101555.47
2022-09-18T17:01:12.167Z,101564.91
2022-09-18T17:03:41.245Z,101559.03
2022-09-18T17:06:09.101Z,101558.44
2022-09-18T17:08:37.035Z,101562.50
2022-09-18T17:11:06.158Z,101563.53
2022-09-18T17:13:34.008Z,101565.28
2022-09-18T17:16:02.262Z,101569.22
2022-09-18T17:18:29.986Z,101568.22
2022-09-18T17:21:02.134Z,101570.06
2022-09-18T17:23:31.093Z,101574.28
2022-09-18T17:26:05.148Z,101576.56
2022-09-18T17:28:33.195Z,101577.19
2022-09-18T17:31:01.729Z,101575.66
2022-09-18T17:33:29.431Z,101577.50
2022-09-18T17:35:57.130Z,101578.97
2022-09-18T17:38:26.205Z,101585.63
2022-09-18T17:40:58.095Z,101586.28
2022-09-18T17:43:26.162Z,101587.53
2022-09-18T17:45:57.890Z,101590.81
2022-09-18T17:48:27.004Z,101590.59
2022-09-18T17:50:58.643Z,101587.69
2022-09-18T17:53:28.340Z,101590.53
2022-09-18T17:55:57.405Z,101587.97
2022-09-18T17:58:25.142Z,101586.88
2022-09-18T18:00:52.856Z,101578.38
2022-09-18T18:03:20.577Z,101576.56
2022-09-18T18:05:52.884Z,101589.00
2022-09-18T18:08:20.956Z,101581.91
2022-09-18T18:10:50.118Z,101588.25
2022-09-18T18:13:18.956Z,101588.06
2022-09-18T18:15:48.048Z,101590.94
2022-09-18T18:18:15.786Z,101593.66
2022-09-18T18:20:50.385Z,101592.78
2022-09-18T18:23:18.141Z,101597.69
2022-09-18T18:25:47.129Z,101598.16
2022-09-18T18:28:16.186Z,101603.59
2022-09-18T18:30:45.949Z,101595.91
2022-09-18T18:33:13.638Z,101607.59
2022-09-18T18:35:41.672Z,101609.81
2022-09-18T18:38:09.410Z,101614.72
2022-09-18T18:40:38.775Z,101617.50
2022-09-18T18:43:06.517Z,101619.28
2022-09-18T18:45:35.776Z,101624.84
2022-09-18T18:48:04.941Z,101624.38
2022-09-18T18:50:35.040Z,101621.94
2022-09-18T18:53:02.766Z,101628.41
2022-09-18T18:55:30.531Z,101626.72
2022-09-18T18:57:58.265Z,101631.66
2022-09-18T19:00:27.350Z,101633.56
2022-09-18T19:02:56.463Z,101631.56
2022-09-18T19:05:30.306Z,101638.09
2022-09-18T19:07:58.794Z,101643.38
2022-09-18T19:10:27.251Z,101641.81
2022-09-18T19:12:57.137Z,101642.44
2022-09-18T19:15:25.151Z,101645.97
2022-09-18T19:17:53.050Z,101648.28
2022-09-18T19:20:22.322Z,101655.50
2022-09-18T19:22:56.620Z,101652.63
2022-09-18T19:25:25.732Z,101661.41
2022-09-18T19:27:56.331Z,101659.75
2022-09-18T19:30:25.281Z,101667.88
2022-09-18T19:32:55.477Z,101668.66
2022-09-18T19:35:24.517Z,101668.91
2022-09-18T19:37:52.208Z,101669.50
2022-09-18T19:40:20.081Z,101679.56
2022-09-18T19:43:01.566Z,101678.63
2022-09-18T19:45:30.918Z,101678.50
2022-09-18T19:47:58.717Z,101679.28
2022-09-18T19:50:29.892Z,101688.66
2022-09-18T19:52:57.856Z,101682.81
2022-09-18T19:55:25.778Z,101684.56
2022-09-18T19:57:57.148Z,101688.34
2022-09-18T20:00:25.870Z,101695.59
2022-09-18T20:02:58.026Z,101695.75
2022-09-18T20:05:27.837Z,101695.13
2022-09-18T20:07:55.667Z,101690.16
2022-09-18T20:10:23.800Z,101696.78
2022-09-18T20:12:53.933Z,101699.31
2022-09-18T20:15:21.682Z,101704.28
2022-09-18T20:17:49.428Z,101694.94
2022-09-18T20:20:17.355Z,101692.81
2022-09-18T20:22:46.393Z,101701.81
2022-09-18T20:25:14.182Z,101709.09
2022-09-18T20:27:43.019Z,101709.88
2022-09-18T20:30:12.524Z,101707.09
2022-09-18T20:32:40.282Z,101708.13
2022-09-18T20:35:08.825Z,101700.31
2022-09-18T20:37:36.812Z,101704.47
2022-09-18T20:40:12.807Z,101702.59
2022-09-18T20:42:40.646Z,101709.28
2022-09-18T20:45:08.854Z,101708.34
2022-09-18T20:47:37.678Z,101718.00
2022-09-18T20:50:06.977Z,101721.59
2022-09-18T20:52:36.623Z,101721.13
2022-09-18T20:55:12.389Z,101724.38
2022-09-18T20:57:41.213Z,101725.19
2022-09-18T21:00:11.228Z,101715.47
2022-09-18T21:02:39.908Z,101718.84
2022-09-18T21:05:11.462Z,101718.78
2022-09-18T21:07:39.129Z,101718.84
2022-09-18T21:10:09.480Z,101720.63
2022-09-18T21:12:38.749Z,101709.81
2022-09-18T21:15:09.177Z,101720.63
2022-09-18T21:17:38.362Z,101711.22
2022-09-18T21:20:07.171Z,101716.41
2022-09-18T21:22:54.856Z,101722.38
2022-09-18T21:25:24.668Z,101718.38
2022-09-18T21:27:55.193Z,101721.00
2022-09-18T21:30:24.074Z,101717.81
2022-09-18T21:32:55.505Z,101718.97
2022-09-18T21:35:23.711Z,101712.19
2022-09-18T21:37:51.960Z,101712.03
2022-09-18T21:40:19.776Z,101718.34
2022-09-18T21:42:48.873Z,101715.50
2022-09-18T21:45:20.613Z,101719.00
2022-09-18T21:47:48.759Z,101719.28
2022-09-18T21:50:16.629Z,101728.91
2022-09-18T21:52:44.745Z,101720.13
2022-09-18T21:55:12.538Z,101727.94
2022-09-18T21:57:40.412Z,101719.56
2022-09-18T22:00:11.453Z,101723.31
2022-09-18T22:02:43.210Z,101724.91
2022-09-18T22:05:12.221Z,101728.03
2022-09-18T22:07:40.772Z,101723.41
2022-09-18T22:10:09.545Z,101729.22
2022-09-18T22:12:38.899Z,101724.06
2022-09-18T22:15:07.753Z,101721.66
2022-09-18T22:17:36.810Z,101727.28
2022-09-18T22:20:05.356Z,101726.47
2022-09-18T22:22:33.056Z,101725.09
2022-09-18T22:25:02.222Z,101733.88
2022-09-18T22:27:30.069Z,101734.78
2022-09-18T22:29:57.798Z,101732.56
2022-09-18T22:32:25.910Z,101733.84
2022-09-18T22:34:55.860Z,101740.94
2022-09-18T22:37:23.605Z,101745.63
2022-09-18T22:39:51.390Z,101739.34
2022-09-18T22:42:19.067Z,101739.41
2022-09-18T22:44:46.757Z,101744.69
2022-09-18T22:47:14.711Z,101741.66
2022-09-18T22:49:42.452Z,101749.53
2022-09-18T22:52:11.523Z,101746.97
2022-09-18T22:54:39.260Z,101744.75
2022-09-18T22:57:06.991Z,101744.75
2022-09-18T22:59:35.435Z,101743.00
2022-09-18T23:02:07.820Z,101744.13
2022-09-18T23:04:36.218Z,101740.09
2022-09-18T23:07:04.749Z,101742.78
2022-09-18T23:09:33.884Z,101744.75
2022-09-18T23:12:01.953Z,101739.56
2022-09-18T23:14:31.436Z,101736.66
2022-09-18T23:17:00.392Z,101746.44
2022-09-18T23:19:30.260Z,101736.78
2022-09-18T23:21:58.085Z,101747.53
2022-09-18T23:24:26.937Z,101740.13
2022-09-18T23:26:58.187Z,101744.28
2022-09-18T23:29:27.343Z,101735.19
2022-09-18T23:31:57.261Z,101733.47
2022-09-18T23:34:28.857Z,101733.97
2022-09-18T23:36:58.069Z,101743.84
2022-09-18T23:39:28.579Z,101739.88
2022-09-18T23:41:59.264Z,101737.69
2022-09-18T23:44:30.434Z,101740.88
2022-09-18T23:46:58.781Z,101742.09
2022-09-18T23:49:26.645Z,101740.66
2022-09-18T23:51:55.744Z,101738.44
2022-09-18T23:54:25.428Z,101733.00
2022-09-18T23:56:53.754Z,101739.09
2022-09-18T23:59:24.680Z,101741.53
